createdAt,value
2023-01-06T00:01:05.169Z,8.20
2023-01-06T00:03:31.847Z,8.10
2023-01-06T00:06:00.449Z,8.20
2023-01-06T00:08:27.253Z,8.20
2023-01-06T00:10:54.458Z,8.20
2023-01-06T00:13:21.382Z,8.20
2023-01-06T00:15:48.515Z,8.20
2023-01-06T00:18:15.218Z,8.20
2023-01-06T00:20:41.894Z,8.20
2023-01-06T00:23:08.608Z,8.10
2023-01-06T00:25:35.310Z,8.10
2023-01-06T00:28:02.169Z,8.00
2023-01-06T00:30:28.884Z,8.00
2023-01-06T00:32:55.658Z,8.10
2023-01-06T00:35:22.368Z,8.00
2023-01-06T00:37:49.064Z,8.00
2023-01-06T00:40:15.937Z,8.00
2023-01-06T00:42:42.826Z,8.00
2023-01-06T00:45:10.836Z,8.00
2023-01-06T00:47:37.547Z,7.90
2023-01-06T00:50:04.561Z,7.90
2023-01-06T00:52:31.284Z,7.90
2023-01-06T00:54:59.262Z,7.90
2023-01-06T00:57:26.192Z,8.00
2023-01-06T00:59:52.883Z,8.00
2023-01-06T01:02:19.761Z,8.00
2023-01-06T01:04:46.698Z,8.00
2023-01-06T01:07:13.467Z,8.00
2023-01-06T01:09:40.215Z,8.00
2023-01-06T01:12:09.833Z,8.00
2023-01-06T01:14:42.249Z,7.90
2023-01-06T01:17:10.584Z,7.70
2023-01-06T01:19:38.367Z,7.50
2023-01-06T01:22:05.515Z,7.40
2023-01-06T01:24:32.341Z,7.20
2023-01-06T01:26:59.250Z,7.20
2023-01-06T01:29:26.626Z,7.10
2023-01-06T01:31:53.284Z,7.00
2023-01-06T01:34:20.826Z,6.90
2023-01-06T01:36:50.412Z,6.80
2023-01-06T01:39:19.566Z,6.80
2023-01-06T01:41:46.872Z,6.70
2023-01-06T01:44:32.044Z,6.70
2023-01-06T01:46:58.722Z,6.60
2023-01-06T01:49:27.559Z,6.60
2023-01-06T01:51:56.949Z,6.60
2023-01-06T01:54:29.450Z,6.50
2023-01-06T01:57:03.305Z,6.50
2023-01-06T01:59:33.461Z,6.50
2023-01-06T02:02:00.686Z,6.50
2023-01-06T02:04:28.254Z,6.50
2023-01-06T02:06:55.805Z,6.50
2023-01-06T02:09:24.829Z,6.50
2023-01-06T02:11:52.228Z,6.50
2023-01-06T02:14:22.108Z,6.50
2023-01-06T02:17:07.138Z,6.50
2023-01-06T02:20:04.839Z,6.40
2023-01-06T02:22:58.921Z,6.30
2023-01-06T02:25:50.938Z,6.30
2023-01-06T02:28:42.020Z,6.20
2023-01-06T02:31:20.696Z,6.20
2023-01-06T02:33:59.547Z,6.10
2023-01-06T02:36:53.280Z,6.10
2023-01-06T02:39:35.154Z,6.10
2023-01-06T02:42:08.685Z,6.00
2023-01-06T02:44:48.379Z,5.90
2023-01-06T02:47:27.899Z,5.80
2023-01-06T02:50:13.869Z,5.80
2023-01-06T02:52:43.309Z,5.70
2023-01-06T02:55:26.549Z,5.70
2023-01-06T02:58:05.760Z,5.70
2023-01-06T03:00:57.313Z,5.70
2023-01-06T03:03:29.217Z,5.70
2023-01-06T03:06:03.675Z,5.70
2023-01-06T03:08:32.917Z,5.60
2023-01-06T03:11:01.891Z,5.60
2023-01-06T03:13:34.355Z,5.60
2023-01-06T03:16:01.821Z,5.50
2023-01-06T03:18:29.801Z,5.50
2023-01-06T03:20:59.473Z,5.40
2023-01-06T03:23:26.419Z,5.40
2023-01-06T03:25:53.309Z,5.40
2023-01-06T03:28:34.470Z,5.40
2023-01-06T03:31:26.240Z,5.40
2023-01-06T03:34:09.015Z,5.50
2023-01-06T03:36:54.377Z,5.40
2023-01-06T03:39:53.566Z,5.40
2023-01-06T03:42:59.998Z,5.30
2023-01-06T03:45:50.809Z,5.20
2023-01-06T03:48:28.601Z,5.10
2023-01-06T03:51:07.879Z,5.10
2023-01-06T03:53:41.639Z,5.00
2023-01-06T03:56:27.631Z,4.90
2023-01-06T03:58:59.550Z,4.90
2023-01-06T04:01:27.612Z,4.80
2023-01-06T04:03:56.164Z,4.80
2023-01-06T04:06:26.942Z,4.80
2023-01-06T04:08:54.103Z,4.70
2023-01-06T04:11:39.542Z,4.80
2023-01-06T04:14:08.527Z,4.80
2023-01-06T04:16:35.323Z,4.80
2023-01-06T04:19:02.740Z,4.80
2023-01-06T04:21:30.155Z,4.80
2023-01-06T04:23:57.333Z,4.80
2023-01-06T04:26:24.043Z,4.80
2023-01-06T04:28:51.197Z,4.80
2023-01-06T04:31:18.920Z,4.70
2023-01-06T04:33:47.987Z,4.70
2023-01-06T04:36:15.906Z,4.70
2023-01-06T04:38:47.716Z,4.70
2023-01-06T04:41:14.932Z,4.70
2023-01-06T04:43:41.649Z,4.70
2023-01-06T04:46:08.625Z,4.70
2023-01-06T04:48:35.319Z,4.70
2023-01-06T04:51:09.762Z,4.70
2023-01-06T04:53:38.831Z,4.70
2023-01-06T04:56:07.342Z,4.60
2023-01-06T04:58:35.295Z,4.60
2023-01-06T05:01:04.754Z,4.60
2023-01-06T05:03:31.761Z,4.50
2023-01-06T05:06:09.962Z,4.50
2023-01-06T05:08:38.319Z,4.40
2023-01-06T05:11:11.539Z,4.40
2023-01-06T05:13:38.661Z,4.40
2023-01-06T05:16:16.051Z,4.30
2023-01-06T05:18:43.069Z,4.30
2023-01-06T05:21:09.866Z,4.30
2023-01-06T05:23:37.825Z,4.20
2023-01-06T05:26:05.195Z,4.20
2023-01-06T05:28:32.201Z,4.20
2023-01-06T05:31:04.125Z,4.20
2023-01-06T05:33:33.978Z,4.10
2023-01-06T05:36:02.337Z,4.10
2023-01-06T05:38:29.239Z,4.10
2023-01-06T05:40:56.951Z,4.10
2023-01-06T05:43:25.057Z,4.10
2023-01-06T05:45:52.749Z,4.00
2023-01-06T05:48:20.018Z,4.00
2023-01-06T05:50:46.662Z,4.00
2023-01-06T05:53:13.331Z,4.00
2023-01-06T05:55:39.991Z,4.00
2023-01-06T05:58:06.775Z,4.00
2023-01-06T06:00:33.427Z,4.00
2023-01-06T06:03:00.127Z,4.00
2023-01-06T06:05:26.995Z,3.90
2023-01-06T06:07:56.695Z,3.90
2023-01-06T06:10:23.824Z,3.90
2023-01-06T06:12:53.650Z,3.90
2023-01-06T06:15:20.325Z,3.80
2023-01-06T06:17:47.051Z,3.80
2023-01-06T06:20:13.766Z,3.80
2023-01-06T06:22:40.435Z,3.70
2023-01-06T06:25:07.422Z,3.80
2023-01-06T06:27:34.118Z,3.70
2023-01-06T06:30:00.809Z,3.70
2023-01-06T06:32:30.949Z,3.70
2023-01-06T06:34:57.860Z,3.70
2023-01-06T06:37:24.579Z,3.70
2023-01-06T06:39:51.243Z,3.60
2023-01-06T06:42:18.777Z,3.60
2023-01-06T06:44:45.436Z,3.60
2023-01-06T06:47:12.425Z,3.60
2023-01-06T06:49:39.089Z,3.60
2023-01-06T06:52:05.808Z,3.60
2023-01-06T06:54:32.599Z,3.60
2023-01-06T06:56:59.265Z,3.50
2023-01-06T06:59:25.951Z,3.50
2023-01-06T07:01:52.750Z,3.50
2023-01-06T07:04:19.554Z,3.50
2023-01-06T07:06:46.243Z,3.50
2023-01-06T07:09:12.896Z,3.50
2023-01-06T07:11:39.563Z,3.50
2023-01-06T07:14:06.279Z,3.60
2023-01-06T07:16:32.969Z,3.60
2023-01-06T07:18:59.672Z,3.60
2023-01-06T07:21:26.440Z,3.60
2023-01-06T07:23:53.109Z,3.60
2023-01-06T07:26:19.802Z,3.60
2023-01-06T07:28:46.595Z,3.60
2023-01-06T07:31:13.313Z,3.70
2023-01-06T07:33:40.013Z,3.70
2023-01-06T07:36:07.240Z,3.70
2023-01-06T07:38:33.896Z,3.70
2023-01-06T07:41:01.228Z,3.80
2023-01-06T07:43:28.150Z,3.80
2023-01-06T07:45:54.888Z,3.80
2023-01-06T07:48:21.672Z,3.90
2023-01-06T07:50:48.558Z,3.80
2023-01-06T07:53:15.347Z,3.80
2023-01-06T07:55:42.070Z,3.80
2023-01-06T07:58:09.997Z,3.80
2023-01-06T08:00:37.156Z,3.80
2023-01-06T08:03:08.013Z,3.80
2023-01-06T08:05:38.714Z,3.80
2023-01-06T08:08:05.626Z,3.80
2023-01-06T08:10:32.524Z,3.80
2023-01-06T08:12:59.334Z,3.70
2023-01-06T08:15:26.484Z,3.80
2023-01-06T08:17:54.182Z,3.80
2023-01-06T08:20:21.260Z,3.80
2023-01-06T08:22:47.910Z,3.80
2023-01-06T08:25:14.747Z,3.80
2023-01-06T08:27:41.494Z,3.80
2023-01-06T08:30:09.076Z,3.70
2023-01-06T08:32:35.851Z,3.70
2023-01-06T08:35:02.687Z,3.80
2023-01-06T08:37:29.923Z,3.70
2023-01-06T08:39:56.630Z,3.70
2023-01-06T08:42:23.333Z,3.70
2023-01-06T08:44:50.028Z,3.70
2023-01-06T08:47:16.725Z,3.80
2023-01-06T08:49:43.424Z,3.90
2023-01-06T08:52:10.100Z,4.00
2023-01-06T08:54:36.781Z,4.10
2023-01-06T08:57:03.807Z,4.20
2023-01-06T08:59:30.547Z,4.20
2023-01-06T09:01:57.323Z,4.20
2023-01-06T09:04:24.143Z,4.30
2023-01-06T09:06:51.157Z,4.40
2023-01-06T09:09:17.901Z,4.40
2023-01-06T09:11:45.846Z,4.50
2023-01-06T09:14:16.108Z,4.60
2023-01-06T09:16:42.921Z,4.70
2023-01-06T09:19:12.551Z,4.70
2023-01-06T09:21:42.757Z,4.70
2023-01-06T09:24:13.994Z,4.80
2023-01-06T09:26:44.170Z,4.80
2023-01-06T09:29:10.908Z,4.80
2023-01-06T09:31:37.581Z,4.80
2023-01-06T09:34:04.452Z,4.80
2023-01-06T09:36:32.598Z,4.90
2023-01-06T09:38:59.352Z,5.00
2023-01-06T09:42:24.486Z,5.10
2023-01-06T09:45:04.776Z,5.20
2023-01-06T09:47:37.003Z,5.20
2023-01-06T09:50:14.543Z,5.30
2023-01-06T09:52:51.259Z,5.40
2023-01-06T09:55:32.136Z,5.30
2023-01-06T09:58:04.967Z,5.40
2023-01-06T10:00:37.718Z,5.40
2023-01-06T10:03:05.678Z,5.40
2023-01-06T10:05:43.524Z,5.40
2023-01-06T10:08:17.724Z,5.40
2023-01-06T10:11:04.709Z,5.40
2023-01-06T10:14:12.116Z,5.50
2023-01-06T10:17:17.378Z,5.60
2023-01-06T10:20:30.397Z,5.80
2023-01-06T10:23:05.673Z,5.90
2023-01-06T10:25:44.932Z,6.10
2023-01-06T10:28:25.197Z,6.10
2023-01-06T10:30:55.128Z,6.00
2023-01-06T10:33:29.565Z,6.10
2023-01-06T10:35:57.891Z,6.20
2023-01-06T10:38:49.596Z,6.30
2023-01-06T10:41:19.299Z,6.40
2023-01-06T10:43:45.997Z,6.40
2023-01-06T10:46:12.970Z,6.50
2023-01-06T10:48:40.191Z,6.50
2023-01-06T10:51:28.063Z,6.60
2023-01-06T10:53:57.959Z,6.60
2023-01-06T10:56:27.743Z,6.60
2023-01-06T10:58:59.245Z,6.80
2023-01-06T11:01:27.636Z,6.90
2023-01-06T11:04:12.124Z,6.90
2023-01-06T11:06:58.874Z,7.00
2023-01-06T11:09:33.158Z,7.00
2023-01-06T11:12:04.045Z,7.10
2023-01-06T11:14:32.852Z,7.20
2023-01-06T11:17:09.435Z,7.30
2023-01-06T11:19:42.179Z,7.20
2023-01-06T11:22:36.185Z,7.20
2023-01-06T11:25:04.259Z,7.20
2023-01-06T11:27:30.977Z,7.10
2023-01-06T11:29:57.728Z,7.10
2023-01-06T11:32:27.577Z,7.20
2023-01-06T11:34:56.961Z,7.20
2023-01-06T11:37:41.855Z,7.20
2023-01-06T11:40:17.896Z,7.20
2023-01-06T11:42:48.924Z,7.20
2023-01-06T11:45:35.323Z,7.30
2023-01-06T11:48:05.179Z,7.40
2023-01-06T11:50:32.407Z,7.30
2023-01-06T11:53:05.019Z,7.30
2023-01-06T11:55:31.838Z,7.30
2023-01-06T11:58:18.925Z,7.30
2023-01-06T12:00:53.111Z,7.50
2023-01-06T12:03:20.036Z,7.50
2023-01-06T12:06:24.477Z,7.60
2023-01-06T12:09:00.111Z,7.70
2023-01-06T12:11:36.180Z,7.70
2023-01-06T12:14:16.236Z,7.70
2023-01-06T12:17:18.591Z,7.70
2023-01-06T12:19:50.561Z,7.80
2023-01-06T12:22:38.265Z,7.90
2023-01-06T12:25:10.094Z,7.90
2023-01-06T12:27:49.381Z,8.00
2023-01-06T12:30:34.707Z,8.10
2023-01-06T12:33:09.321Z,8.10
2023-01-06T12:35:37.937Z,8.20
2023-01-06T12:38:22.718Z,8.20
2023-01-06T12:40:55.153Z,8.30
2023-01-06T12:43:24.636Z,8.30
2023-01-06T12:46:19.188Z,8.30
2023-01-06T12:48:50.959Z,8.40
2023-01-06T12:51:21.927Z,8.40
2023-01-06T12:53:59.160Z,8.50
2023-01-06T12:56:57.712Z,8.50
2023-01-06T12:59:48.273Z,8.60
2023-01-06T13:02:34.940Z,8.60
2023-01-06T13:05:05.339Z,8.60
2023-01-06T13:07:58.536Z,8.70
2023-01-06T13:10:34.755Z,8.80
2023-01-06T13:13:37.915Z,8.80
2023-01-06T13:16:42.990Z,8.80
2023-01-06T13:19:15.627Z,8.80
2023-01-06T13:21:44.023Z,8.90
2023-01-06T13:24:54.543Z,8.90
2023-01-06T13:27:47.999Z,8.90
2023-01-06T13:30:35.010Z,9.00
2023-01-06T13:33:10.064Z,9.00
2023-01-06T13:35:36.704Z,9.00
2023-01-06T13:38:12.566Z,9.00
2023-01-06T13:40:40.205Z,8.90
2023-01-06T13:43:31.409Z,8.80
2023-01-06T13:46:05.960Z,8.80
2023-01-06T13:48:43.465Z,8.90
2023-01-06T13:51:12.898Z,8.90
2023-01-06T13:53:45.341Z,8.90
2023-01-06T13:56:14.827Z,8.80
2023-01-06T13:58:43.431Z,8.70
2023-01-06T14:01:18.727Z,8.70
2023-01-06T14:03:50.177Z,8.70
2023-01-06T14:06:23.038Z,8.60
2023-01-06T14:09:00.822Z,8.60
2023-01-06T14:11:31.656Z,8.40
2023-01-06T14:14:00.784Z,8.30
2023-01-06T14:16:46.923Z,8.20
2023-01-06T14:19:18.911Z,8.10
2023-01-06T14:21:50.567Z,8.00
2023-01-06T14:24:20.301Z,7.90
2023-01-06T14:27:00.920Z,7.90
2023-01-06T14:29:39.916Z,7.90
2023-01-06T14:32:16.979Z,7.80
2023-01-06T14:34:51.783Z,7.70
2023-01-06T14:37:21.819Z,7.70
2023-01-06T14:39:50.935Z,7.50
2023-01-06T14:42:29.947Z,7.40
2023-01-06T14:45:00.264Z,7.50
2023-01-06T14:47:46.209Z,7.40
2023-01-06T14:50:45.539Z,7.40
2023-01-06T14:53:33.112Z,7.30
2023-01-06T14:56:00.532Z,7.20
2023-01-06T14:58:38.344Z,7.10
2023-01-06T15:01:07.081Z,6.90
2023-01-06T15:03:34.646Z,6.70
2023-01-06T15:06:20.879Z,6.60
2023-01-06T15:08:48.087Z,6.40
2023-01-06T15:11:25.184Z,6.40
2023-01-06T15:13:52.113Z,6.30
2023-01-06T15:16:21.543Z,6.20
2023-01-06T15:18:49.636Z,6.10
2023-01-06T15:21:17.891Z,6.10
2023-01-06T15:23:50.537Z,6.20
2023-01-06T15:26:27.170Z,6.20
2023-01-06T15:29:01.091Z,6.20
2023-01-06T15:31:32.237Z,6.20
2023-01-06T15:34:02.290Z,6.20
2023-01-06T15:36:30.133Z,6.20
2023-01-06T15:39:01.510Z,6.20
2023-01-06T15:41:36.639Z,6.10
2023-01-06T15:44:21.776Z,6.10
2023-01-06T15:46:49.869Z,6.10
2023-01-06T15:49:38.501Z,6.10
2023-01-06T15:52:06.788Z,6.10
2023-01-06T15:54:36.252Z,6.10
2023-01-06T15:57:15.647Z,6.10
2023-01-06T15:59:57.028Z,6.00
2023-01-06T16:02:28.271Z,5.90
2023-01-06T16:04:55.675Z,5.80
2023-01-06T16:07:36.322Z,5.70
2023-01-06T16:10:03.339Z,5.70
2023-01-06T16:12:30.285Z,5.60
2023-01-06T16:14:57.015Z,5.60
2023-01-06T16:17:37.941Z,5.60
2023-01-06T16:20:19.830Z,6.10
2023-01-06T16:22:54.410Z,5.60
2023-01-06T16:25:21.065Z,5.60
2023-01-06T16:27:52.945Z,5.50
2023-01-06T16:30:24.039Z,5.60
2023-01-06T16:32:52.687Z,5.60
2023-01-06T16:35:25.086Z,5.70
2023-01-06T16:37:52.233Z,5.50
2023-01-06T16:40:21.032Z,5.50
2023-01-06T16:42:49.167Z,5.40
2023-01-06T16:45:36.938Z,5.40
2023-01-06T16:48:03.942Z,5.30
2023-01-06T16:50:35.929Z,5.30
2023-01-06T16:53:20.855Z,5.20
2023-01-06T16:55:55.814Z,5.10
2023-01-06T16:58:29.808Z,5.10
2023-01-06T17:01:01.050Z,4.80
2023-01-06T17:03:34.636Z,4.70
2023-01-06T17:06:01.337Z,4.60
2023-01-06T17:08:30.255Z,4.60
2023-01-06T17:10:59.673Z,4.40
2023-01-06T17:13:36.940Z,4.40
2023-01-06T17:16:09.496Z,4.30
2023-01-06T17:18:44.927Z,4.40
2023-01-06T17:21:15.661Z,4.40
2023-01-06T17:23:50.907Z,4.40
2023-01-06T17:26:19.623Z,4.40
2023-01-06T17:28:48.646Z,4.40
2023-01-06T17:31:30.748Z,4.40
2023-01-06T17:34:01.735Z,4.40
2023-01-06T17:36:37.072Z,4.40
2023-01-06T17:39:31.655Z,4.30
2023-01-06T17:42:23.707Z,4.30
2023-01-06T17:44:55.849Z,4.20
2023-01-06T17:47:22.525Z,4.20
2023-01-06T17:49:54.797Z,4.20
2023-01-06T17:52:41.434Z,4.10
2023-01-06T17:55:45.147Z,4.10
2023-01-06T17:58:17.882Z,4.20
2023-01-06T18:00:45.296Z,4.10
2023-01-06T18:03:18.606Z,4.00
2023-01-06T18:05:45.581Z,4.00
2023-01-06T18:08:16.947Z,3.90
2023-01-06T18:10:57.180Z,3.90
2023-01-06T18:13:38.634Z,3.70
2023-01-06T18:16:30.980Z,3.60
2023-01-06T18:19:18.067Z,3.60
2023-01-06T18:21:45.735Z,3.70
2023-01-06T18:24:35.405Z,3.70
2023-01-06T18:27:23.803Z,3.70
2023-01-06T18:29:52.113Z,3.70
2023-01-06T18:32:23.234Z,3.70
2023-01-06T18:34:59.965Z,3.70
2023-01-06T18:37:32.436Z,3.60
2023-01-06T18:40:02.790Z,3.60
2023-01-06T18:42:32.650Z,3.50
2023-01-06T18:45:07.919Z,3.40
2023-01-06T18:47:41.028Z,3.50
2023-01-06T18:50:25.057Z,3.40
2023-01-06T18:52:53.827Z,3.40
2023-01-06T18:55:26.401Z,3.30
2023-01-06T18:58:20.357Z,3.40
2023-01-06T19:00:53.911Z,3.40
2023-01-06T19:03:35.991Z,3.50
2023-01-06T19:06:26.847Z,3.60
2023-01-06T19:08:55.548Z,3.60
2023-01-06T19:11:24.970Z,3.60
2023-01-06T19:13:58.170Z,3.70
2023-01-06T19:16:34.622Z,3.70
2023-01-06T19:19:31.006Z,3.70
2023-01-06T19:22:14.434Z,3.80
2023-01-06T19:24:46.263Z,3.90
2023-01-06T19:27:37.666Z,3.90
2023-01-06T19:30:13.503Z,3.90
2023-01-06T19:32:40.423Z,3.90
2023-01-06T19:35:24.395Z,3.90
2023-01-06T19:38:01.446Z,4.00
2023-01-06T19:40:30.717Z,4.00
2023-01-06T19:43:09.540Z,4.00
2023-01-06T19:45:36.328Z,4.10
2023-01-06T19:48:14.829Z,4.10
2023-01-06T19:50:41.514Z,4.10
2023-01-06T19:53:29.843Z,4.10
2023-01-06T19:55:56.518Z,4.20
2023-01-06T19:58:33.691Z,4.20
2023-01-06T20:01:00.382Z,4.20
2023-01-06T20:03:37.271Z,4.30
2023-01-06T20:06:04.626Z,4.30
2023-01-06T20:08:31.296Z,4.40
2023-01-06T20:10:58.201Z,4.40
2023-01-06T20:13:24.977Z,4.50
2023-01-06T20:15:51.687Z,4.50
2023-01-06T20:18:18.396Z,4.50
2023-01-06T20:20:45.045Z,4.50
2023-01-06T20:23:11.954Z,4.50
2023-01-06T20:25:38.658Z,4.50
2023-01-06T20:28:05.439Z,4.60
2023-01-06T20:30:32.087Z,4.60
2023-01-06T20:32:58.795Z,4.60
2023-01-06T20:35:25.470Z,4.60
2023-01-06T20:37:52.158Z,4.70
2023-01-06T20:40:19.221Z,4.70
2023-01-06T20:42:46.030Z,4.70
2023-01-06T20:45:13.194Z,4.70
2023-01-06T20:47:40.334Z,4.60
2023-01-06T20:50:07.543Z,4.60
2023-01-06T20:52:35.057Z,4.50
2023-01-06T20:55:01.972Z,4.40
2023-01-06T20:57:28.669Z,4.40
2023-01-06T20:59:55.355Z,4.40
2023-01-06T21:02:22.260Z,4.40
2023-01-06T21:04:48.980Z,4.40
2023-01-06T21:07:15.675Z,4.40
2023-01-06T21:09:42.320Z,4.40
2023-01-06T21:12:09.040Z,4.30
2023-01-06T21:14:35.771Z,4.30
2023-01-06T21:17:03.844Z,4.30
2023-01-06T21:19:30.699Z,4.20
2023-01-06T21:21:57.367Z,4.30
2023-01-06T21:24:25.224Z,4.20
2023-01-06T21:26:52.268Z,4.20
2023-01-06T21:29:19.000Z,4.10
2023-01-06T21:31:45.774Z,4.10
2023-01-06T21:34:12.438Z,4.10
2023-01-06T21:36:39.105Z,4.10
2023-01-06T21:39:07.573Z,4.00
2023-01-06T21:41:52.621Z,4.00
2023-01-06T21:44:20.994Z,4.00
2023-01-06T21:46:47.862Z,3.90
2023-01-06T21:49:14.563Z,3.90
2023-01-06T21:51:41.352Z,3.90
2023-01-06T21:54:08.164Z,3.90
2023-01-06T21:56:35.687Z,3.90
2023-01-06T21:59:02.663Z,3.80
2023-01-06T22:01:29.862Z,3.80
2023-01-06T22:03:56.625Z,3.80
2023-01-06T22:06:23.942Z,3.80
2023-01-06T22:08:51.214Z,3.80
2023-01-06T22:11:18.187Z,3.70
2023-01-06T22:13:45.161Z,3.60
2023-01-06T22:16:12.212Z,3.60
2023-01-06T22:18:39.438Z,3.50
2023-01-06T22:21:06.633Z,3.40
2023-01-06T22:23:34.742Z,3.40
2023-01-06T22:26:01.461Z,3.30
2023-01-06T22:28:28.152Z,3.30
2023-01-06T22:30:55.657Z,3.30
2023-01-06T22:33:22.690Z,3.30
2023-01-06T22:35:49.454Z,3.30
2023-01-06T22:38:16.229Z,3.30
2023-01-06T22:40:42.899Z,3.20
2023-01-06T22:43:09.663Z,3.20
2023-01-06T22:45:36.841Z,3.20
2023-01-06T22:48:04.033Z,3.20
2023-01-06T22:50:30.723Z,3.10
2023-01-06T22:52:57.405Z,3.10
2023-01-06T22:55:24.199Z,3.10
2023-01-06T22:57:50.895Z,3.10
2023-01-06T23:00:18.769Z,3.10
2023-01-06T23:02:45.739Z,3.00
2023-01-06T23:05:12.580Z,3.00
2023-01-06T23:07:41.443Z,3.00
2023-01-06T23:10:09.661Z,3.00
2023-01-06T23:12:38.095Z,3.00
2023-01-06T23:15:05.428Z,3.00
2023-01-06T23:17:32.078Z,2.90
2023-01-06T23:19:58.911Z,2.90
2023-01-06T23:22:25.809Z,2.90
2023-01-06T23:24:52.715Z,2.80
2023-01-06T23:27:19.451Z,2.80
2023-01-06T23:29:46.472Z,2.80
2023-01-06T23:32:13.213Z,2.80
2023-01-06T23:34:39.935Z,2.80
2023-01-06T23:37:06.584Z,2.80
2023-01-06T23:39:33.294Z,2.80
2023-01-06T23:41:59.966Z,2.80
2023-01-06T23:44:26.774Z,2.80
2023-01-06T23:46:53.447Z,2.90
2023-01-06T23:49:20.319Z,3.00
2023-01-06T23:51:46.985Z,3.20
2023-01-06T23:54:14.125Z,3.20
2023-01-06T23:56:41.120Z,3.20
2023-01-06T23:59:10.263Z,3.20
